createdAt,value
2022-11-26T00:01:18.019Z,77.83
2022-11-26T00:06:35.484Z,79.63
2022-11-26T00:11:37.976Z,83.67
2022-11-26T00:16:40.598Z,57.03
2022-11-26T00:21:43.277Z,58.87
2022-11-26T00:26:45.874Z,56.87
2022-11-26T00:31:48.613Z,84.90
2022-11-26T00:36:51.455Z,85.97
2022-11-26T00:41:54.155Z,50.37
2022-11-26T00:46:56.777Z,69.93
2022-11-26T00:51:59.423Z,70.67
2022-11-26T00:57:02.037Z,75.17
2022-11-26T01:02:04.879Z,53.87
2022-11-26T01:07:10.478Z,69.67
2022-11-26T01:12:14.738Z,70.17
2022-11-26T01:17:17.198Z,53.17
2022-11-26T01:22:22.695Z,59.03
2022-11-26T01:27:25.348Z,51.13
2022-11-26T01:32:29.595Z,63.30
2022-11-26T01:37:32.414Z,85.07
2022-11-26T01:42:49.644Z,69.40
2022-11-26T01:47:52.238Z,75.83
2022-11-26T01:53:14.959Z,52.80
2022-11-26T01:58:22.703Z,53.30
2022-11-26T02:03:25.717Z,75.83
2022-11-26T02:08:32.021Z,56.77
2022-11-26T02:13:34.695Z,64.70
2022-11-26T02:18:42.081Z,48.10
2022-11-26T02:24:24.329Z,48.30
2022-11-26T02:29:46.750Z,56.73
2022-11-26T02:34:57.001Z,57.43
2022-11-26T02:39:59.626Z,74.40
2022-11-26T02:45:08.382Z,64.57
2022-11-26T02:50:22.203Z,54.73
2022-11-26T02:55:29.705Z,55.37
2022-11-26T03:00:34.598Z,50.43
2022-11-26T03:05:39.250Z,41.77
2022-11-26T03:10:41.829Z,59.43
2022-11-26T03:15:44.398Z,47.90
2022-11-26T03:20:46.828Z,58.10
2022-11-26T03:25:49.327Z,78.17
2022-11-26T03:30:52.793Z,72.63
2022-11-26T03:35:55.450Z,72.20
2022-11-26T03:41:00.182Z,60.57
2022-11-26T03:46:02.664Z,72.07
2022-11-26T03:51:05.145Z,56.40
2022-11-26T03:56:08.169Z,55.63
2022-11-26T04:01:12.720Z,64.90
2022-11-26T04:06:15.297Z,47.40
2022-11-26T04:11:17.842Z,70.93
2022-11-26T04:16:20.945Z,56.77
2022-11-26T04:21:23.469Z,57.90
2022-11-26T04:26:25.933Z,49.37
2022-11-26T04:31:28.554Z,69.67
2022-11-26T04:36:31.074Z,67.40
2022-11-26T04:41:33.939Z,69.87
2022-11-26T04:46:36.555Z,64.03
2022-11-26T04:51:39.032Z,60.60
2022-11-26T04:56:41.615Z,68.33
2022-11-26T05:01:44.640Z,76.40
2022-11-26T05:06:47.207Z,71.43
2022-11-26T05:11:49.653Z,68.27
2022-11-26T05:16:52.176Z,56.27
2022-11-26T05:21:54.680Z,69.60
2022-11-26T05:26:57.485Z,78.23
2022-11-26T05:32:00.077Z,74.20
2022-11-26T05:37:02.668Z,80.83
2022-11-26T05:42:09.201Z,79.13
2022-11-26T05:47:12.110Z,76.67
2022-11-26T05:52:14.478Z,83.33
2022-11-26T05:57:18.410Z,82.70
2022-11-26T06:02:20.975Z,84.53
2022-11-26T06:07:23.580Z,88.23
2022-11-26T06:12:26.020Z,89.13
2022-11-26T06:17:28.496Z,87.87
2022-11-26T06:22:31.023Z,94.00
2022-11-26T06:27:34.293Z,75.53
2022-11-26T06:32:37.057Z,62.50
2022-11-26T06:37:40.544Z,51.47
2022-11-26T06:42:42.982Z,72.63
2022-11-26T06:47:50.219Z,74.27
2022-11-26T06:52:54.143Z,93.03
2022-11-26T06:57:56.582Z,84.37
2022-11-26T07:02:59.092Z,50.80
2022-11-26T07:08:01.681Z,46.07
2022-11-26T07:13:04.128Z,88.23
2022-11-26T07:18:06.730Z,79.03
2022-11-26T07:23:09.274Z,75.13
2022-11-26T07:28:11.897Z,68.50
2022-11-26T07:33:14.291Z,80.73
2022-11-26T07:38:16.639Z,71.00
2022-11-26T07:43:19.171Z,60.80
2022-11-26T07:48:21.666Z,67.67
2022-11-26T07:53:24.192Z,85.20
2022-11-26T07:58:29.355Z,65.83
2022-11-26T08:03:31.737Z,76.70
2022-11-26T08:08:35.554Z,76.17
2022-11-26T08:13:37.965Z,80.33
2022-11-26T08:18:40.425Z,65.77
2022-11-26T08:23:43.086Z,68.10
2022-11-26T08:28:47.034Z,62.90
2022-11-26T08:33:49.506Z,64.40
2022-11-26T08:38:51.992Z,59.90
2022-11-26T08:44:09.613Z,55.73
2022-11-26T08:49:14.842Z,61.10
2022-11-26T08:54:17.304Z,59.03
2022-11-26T08:59:22.947Z,56.53
2022-11-26T09:04:25.428Z,73.90
2022-11-26T09:09:28.031Z,72.07
2022-11-26T09:14:36.172Z,64.33
2022-11-26T09:19:38.822Z,72.43
2022-11-26T09:24:41.484Z,52.70
2022-11-26T09:29:44.016Z,56.63
2022-11-26T09:34:46.638Z,60.57
2022-11-26T09:39:49.908Z,70.17
2022-11-26T09:45:01.071Z,64.13
2022-11-26T09:50:07.985Z,58.87
2022-11-26T09:55:17.159Z,61.67
2022-11-26T10:00:31.020Z,57.57
2022-11-26T10:05:43.474Z,59.30
2022-11-26T10:11:01.125Z,55.77
2022-11-26T10:16:43.603Z,49.17
2022-11-26T10:22:00.979Z,53.70
2022-11-26T10:27:18.777Z,48.17
2022-11-26T10:32:28.434Z,40.87
2022-11-26T10:37:30.814Z,41.70
2022-11-26T10:42:42.514Z,37.90
2022-11-26T10:47:45.076Z,38.13
2022-11-26T10:52:48.384Z,36.37
2022-11-26T10:57:59.376Z,38.80
2022-11-26T11:03:04.415Z,34.70
2022-11-26T11:08:13.799Z,41.70
2022-11-26T11:13:16.330Z,42.40
2022-11-26T11:18:22.094Z,44.30
2022-11-26T11:23:52.177Z,39.77
2022-11-26T11:28:54.358Z,38.57
2022-11-26T11:34:19.278Z,41.83
2022-11-26T11:39:38.047Z,33.17
2022-11-26T11:44:47.297Z,34.70
2022-11-26T11:56:02.477Z,35.47
2022-11-26T12:01:36.343Z,52.03
2022-11-26T12:07:11.780Z,73.33
2022-11-26T12:12:29.130Z,52.30
2022-11-26T12:17:47.442Z,56.27
2022-11-26T12:22:58.109Z,44.53
2022-11-26T12:28:32.126Z,54.13
2022-11-26T12:33:52.877Z,63.90
2022-11-26T12:39:00.687Z,63.70
2022-11-26T12:44:22.134Z,62.53
2022-11-26T12:49:44.831Z,68.83
2022-11-26T12:55:08.952Z,63.00
2022-11-26T13:00:25.289Z,61.33
2022-11-26T13:05:51.478Z,102.27
2022-11-26T13:11:28.109Z,66.50
2022-11-26T13:16:57.947Z,67.87
2022-11-26T13:22:26.375Z,84.50
2022-11-26T13:27:48.149Z,79.13
2022-11-26T13:32:53.835Z,153.70
2022-11-26T13:38:14.389Z,132.47
2022-11-26T13:43:35.677Z,109.97
2022-11-26T13:48:59.556Z,136.20
2022-11-26T13:54:22.078Z,53.37
2022-11-26T13:59:28.611Z,96.70
2022-11-26T14:04:34.307Z,95.37
2022-11-26T14:09:42.867Z,92.73
2022-11-26T14:14:52.367Z,92.17
2022-11-26T14:19:58.713Z,46.93
2022-11-26T14:25:06.453Z,40.60
2022-11-26T14:30:09.030Z,65.27
2022-11-26T14:35:34.317Z,43.23
2022-11-26T14:40:38.666Z,58.53
2022-11-26T14:45:42.154Z,55.87
2022-11-26T14:50:44.915Z,67.13
2022-11-26T14:55:48.783Z,78.20
2022-11-26T15:01:10.110Z,67.97
2022-11-26T15:06:34.791Z,59.20
2022-11-26T15:11:39.297Z,66.70
2022-11-26T15:16:42.674Z,67.00
2022-11-26T15:21:45.300Z,41.37
2022-11-26T15:26:49.073Z,35.50
2022-11-26T15:31:51.824Z,45.63
2022-11-26T15:36:54.335Z,44.60
2022-11-26T15:42:02.661Z,51.43
2022-11-26T15:47:05.101Z,58.97
2022-11-26T15:52:13.358Z,61.87
2022-11-26T15:57:27.458Z,56.83
2022-11-26T16:02:31.277Z,65.97
2022-11-26T16:07:33.889Z,64.43
2022-11-26T16:12:36.974Z,57.63
2022-11-26T16:17:39.628Z,63.00
2022-11-26T16:22:47.240Z,66.57
2022-11-26T16:28:06.387Z,56.87
2022-11-26T16:33:09.254Z,56.03
2022-11-26T16:38:23.842Z,60.23
2022-11-26T16:43:26.324Z,52.73
2022-11-26T16:48:29.025Z,53.63
2022-11-26T16:53:31.518Z,39.63
2022-11-26T16:58:36.515Z,58.63
2022-11-26T17:03:39.033Z,54.50
2022-11-26T17:08:47.971Z,54.77
2022-11-26T17:13:52.437Z,55.17
2022-11-26T17:18:55.035Z,73.30
2022-11-26T17:23:57.537Z,61.90
2022-11-26T17:29:01.280Z,63.90
2022-11-26T17:34:03.791Z,75.73
2022-11-26T17:39:06.172Z,80.80
2022-11-26T17:44:08.508Z,51.97
2022-11-26T17:49:11.492Z,121.03
2022-11-26T17:54:13.906Z,120.47
2022-11-26T17:59:19.874Z,128.47
2022-11-26T18:04:23.550Z,126.80
2022-11-26T18:09:25.985Z,141.93
2022-11-26T18:14:28.663Z,131.63
2022-11-26T18:19:31.113Z,131.80
2022-11-26T18:24:34.301Z,92.20
2022-11-26T18:29:37.061Z,75.53
2022-11-26T18:34:40.606Z,63.60
2022-11-26T18:39:43.111Z,67.97
2022-11-26T18:44:45.709Z,59.83
2022-11-26T18:49:48.452Z,58.10
2022-11-26T18:54:51.167Z,76.50
2022-11-26T18:59:53.637Z,60.20
2022-11-26T19:04:56.032Z,65.80
2022-11-26T19:09:59.891Z,48.00
2022-11-26T19:15:02.581Z,47.57
2022-11-26T19:20:06.119Z,53.27
2022-11-26T19:25:09.070Z,74.03
2022-11-26T19:30:15.871Z,78.03
2022-11-26T19:35:19.178Z,79.87
2022-11-26T19:40:21.684Z,72.03
2022-11-26T19:45:24.249Z,79.03
2022-11-26T19:50:26.701Z,70.63
2022-11-26T19:55:29.186Z,77.00
2022-11-26T20:00:31.514Z,67.07
2022-11-26T20:05:33.860Z,69.80
2022-11-26T20:10:37.666Z,80.30
2022-11-26T20:15:42.525Z,97.37
2022-11-26T20:20:44.892Z,99.70
2022-11-26T20:25:47.225Z,90.97
2022-11-26T20:30:49.829Z,91.37
2022-11-26T20:35:52.427Z,96.97
2022-11-26T20:40:54.798Z,78.77
2022-11-26T20:46:02.429Z,91.40
2022-11-26T20:51:07.909Z,95.30
2022-11-26T20:56:10.309Z,90.80
2022-11-26T21:01:28.598Z,90.30
2022-11-26T21:06:31.585Z,108.90
2022-11-26T21:11:34.631Z,103.57
2022-11-26T21:16:37.375Z,103.80
2022-11-26T21:21:39.967Z,99.67
2022-11-26T21:26:42.359Z,93.93
2022-11-26T21:31:44.718Z,107.30
2022-11-26T21:36:47.112Z,103.67
2022-11-26T21:41:49.936Z,116.27
2022-11-26T21:46:52.332Z,113.10
2022-11-26T21:51:54.810Z,114.30
2022-11-26T21:56:57.451Z,103.07
2022-11-26T22:01:59.918Z,96.00
2022-11-26T22:07:02.358Z,86.97
2022-11-26T22:12:05.456Z,64.47
2022-11-26T22:17:07.878Z,98.13
2022-11-26T22:22:10.279Z,89.63
2022-11-26T22:27:12.649Z,93.40
2022-11-26T22:32:14.936Z,85.17
2022-11-26T22:37:17.506Z,53.17
2022-11-26T22:42:19.836Z,64.53
2022-11-26T22:47:22.301Z,59.93
2022-11-26T22:52:24.689Z,52.20
2022-11-26T22:57:28.165Z,49.87
2022-11-26T23:02:30.778Z,54.47
2022-11-26T23:07:34.398Z,51.03
2022-11-26T23:12:36.831Z,51.43
2022-11-26T23:17:39.397Z,57.63
2022-11-26T23:22:41.770Z,65.57
2022-11-26T23:27:44.781Z,82.33
2022-11-26T23:32:47.446Z,74.10
2022-11-26T23:37:50.802Z,63.13
2022-11-26T23:42:53.276Z,80.30
2022-11-26T23:47:55.626Z,110.70
2022-11-26T23:52:58.040Z,63.20
2022-11-26T23:58:00.872Z,51.90
